Saigon Express — VRBT7 — position and weather

sailwx.info

Track history (hours):
 
Tides and Currents Weather Stations Pressure Air Temp Water Temp Dewpoint Dewpoint Depression Visibility Wind Speed Wind Dir Waves Ship Positions

Saigon Express

Last reported at 2016-Jan-31 13:21 UTC. Time now 2016-Feb-06 11:42 UTC.
Position N 35°36' W 023°19'.

Length 260 m; draft 9.3 m.

Type: Ship (hazmat cat A). MMSI: 477106800.

Date/timePositionNaut miles runAvg speedWind from/ knotsBaromVisibWave heightAir tempDewpointWater temp
2016-Jan-31 13:21N 35°36' W 023°19'68816.1
2016-Jan-29 18:32N 36°05' W 009°11'3517.1
2016-Jan-29 16:28N 36°03' W 008°27'13816.9
2016-Jan-29 08:16N 35°57' W 005°36'1014.6
2016-Jan-29 07:33N 36°02' W 005°24'6 6.0
2016-Jan-29 06:32N 36°08' W 005°25'0 0.0
2016-Jan-29 05:32N 36°08' W 005°25'0 0.0
2016-Jan-29 04:33N 36°08' W 005°25'0 0.0
2016-Jan-29 03:33N 36°08' W 005°25'0 0.0
2016-Jan-29 02:33N 36°08' W 005°25'0 0.0
2016-Jan-29 01:33N 36°08' W 005°25'0 0.0
2016-Jan-29 00:33N 36°08' W 005°25'4 4.1
2016-Jan-28 23:33N 36°04' W 005°23'15116.6
2016-Jan-28 14:28N 36°25' W 002°17'3817.2
2016-Jan-28 12:17N 36°47' W 001°40'3317.6
2016-Jan-28 10:26N 37°09' W 001°10'1517.2
2016-Jan-28 09:33N 37°19' W 000°55'1919.1
2016-Jan-28 08:33N 37°31' W 000°37'2019.7
2016-Jan-28 07:33N 37°47' W 000°23'2019.8
2016-Jan-28 06:33N 38°04' W 000°09'5817.7
2016-Jan-28 03:18N 38°57' E 000°18'3419.5
2016-Jan-28 01:32N 39°22' W 000°12'7 7.0
2016-Jan-28 00:32N 39°27' W 000°19'0 0.0
2016-Jan-27 23:32N 39°27' W 000°19'0 0.0
2016-Jan-27 22:32N 39°27' W 000°19'0 0.0
2016-Jan-27 21:32N 39°27' W 000°19'0 0.0
2016-Jan-27 20:32N 39°27' W 000°19'0 0.0
2016-Jan-27 19:32N 39°27' W 000°19'0 0.0
2016-Jan-27 18:32N 39°27' W 000°19'0 0.0
2016-Jan-27 17:32N 39°27' W 000°19'0 0.0
2016-Jan-27 16:32N 39°27' W 000°19'0 0.0
2016-Jan-27 15:32N 39°27' W 000°19'0 0.0
2016-Jan-27 14:29N 39°27' W 000°19'0 0.0
2016-Jan-27 13:32N 39°27' W 000°19'0 0.0
2016-Jan-27 12:32N 39°27' W 000°19'0 0.0
2016-Jan-27 11:32N 39°27' W 000°19'0 0.0
2016-Jan-27 10:32N 39°27' W 000°19'0 0.0
2016-Jan-27 09:32N 39°27' W 000°19'0 0.0
2016-Jan-27 08:32N 39°27' W 000°19'0 0.0
2016-Jan-27 07:32N 39°27' W 000°19'0 0.0
2016-Jan-27 06:32N 39°27' W 000°19'0 0.0
2016-Jan-27 05:32N 39°27' W 000°19'0 0.0
2016-Jan-27 04:32N 39°27' W 000°19'4 3.9
2016-Jan-27 03:29N 39°24' W 000°15'0 0.0
2016-Jan-27 02:32N 39°24' W 000°15'0 0.0
2016-Jan-27 01:32N 39°24' W 000°15'0 0.0
2016-Jan-27 00:32N 39°24' W 000°15'0 0.0
2016-Jan-26 23:26N 39°24' W 000°15'0 0.0
2016-Jan-26 22:29N 39°24' W 000°15'0 0.0
2016-Jan-26 21:17N 39°24' W 000°15'0 0.1
2016-Jan-26 20:29N 39°24' W 000°16'0 0.0
2016-Jan-26 19:32N 39°24' W 000°16'0 0.0
2016-Jan-26 18:29N 39°24' W 000°16'0 0.0
2016-Jan-26 17:29N 39°24' W 000°16'0 0.0
2016-Jan-26 16:29N 39°24' W 000°16'0 0.0
2016-Jan-26 15:22N 39°24' W 000°16'0 0.5
2016-Jan-26 14:33N 39°23' W 000°16'6212.4
2016-Jan-26 09:33N 39°50' E 000°57'1414.1
2016-Jan-26 08:33N 40°02' E 001°07'1313.3
2016-Jan-26 07:33N 40°13' E 001°17'1413.6
2016-Jan-26 06:33N 40°24' E 001°26'1413.7
2016-Jan-26 05:33N 40°36' E 001°36'1414.1
2016-Jan-26 04:33N 40°48' E 001°46'1414.2
2016-Jan-26 03:33N 40°59' E 001°57'1413.8
2016-Jan-26 02:32N 41°11' E 002°07'10 2.0
2016-Jan-25 21:26N 41°21' E 002°10'0 0.0
2016-Jan-25 20:32N 41°21' E 002°10'0 0.0
2016-Jan-25 19:20N 41°21' E 002°10'0 0.0
2016-Jan-25 18:26N 41°21' E 002°10'0 0.0
2016-Jan-25 17:32N 41°21' E 002°10'0 0.0
2016-Jan-25 16:33N 41°21' E 002°10'6 6.2
2016-Jan-25 15:33N 41°15' E 002°14'1212.5
2016-Jan-25 14:33N 41°15' E 002°30'5 5.3
2016-Jan-25 13:33N 41°15' E 002°37'1 0.5
2016-Jan-25 12:32N 41°14' E 002°37'6 5.9
2016-Jan-25 11:33N 41°17' E 002°44'1313.2
2016-Jan-25 10:32N 41°23' E 002°60'1513.4
2016-Jan-25 09:27N 41°26' E 003°19'6413.2
2016-Jan-25 04:33N 41°56' E 004°35'10113.5
2016-Jan-24 21:04N 42°51' E 006°31'6513.4
2016-Jan-24 16:12N 43°26' E 007°46'5013.7
2016-Jan-24 12:33N 44°04' E 008°31'1414.2
2016-Jan-24 11:33N 44°17' E 008°38'1010.0
2016-Jan-24 10:31N 44°25' E 008°47'0 0.0
2016-Jan-24 09:31N 44°25' E 008°47'0 0.0
2016-Jan-24 08:25N 44°25' E 008°47'0 0.0
2016-Jan-24 07:31N 44°25' E 008°47'0 0.0
2016-Jan-24 06:31N 44°25' E 008°47'0 0.0
2016-Jan-24 05:31N 44°25' E 008°47'0 0.0
2016-Jan-24 04:31N 44°25' E 008°47'0 0.0
2016-Jan-24 03:28N 44°25' E 008°47'0 0.0
2016-Jan-24 02:31N 44°25' E 008°47'0 0.0
2016-Jan-24 01:31N 44°25' E 008°47'0 0.0
2016-Jan-24 00:31N 44°25' E 008°47'0 0.0
2016-Jan-23 23:31N 44°25' E 008°47'0 0.0
2016-Jan-23 22:31N 44°25' E 008°47'0 0.0
2016-Jan-23 21:31N 44°25' E 008°47'0 0.0
2016-Jan-23 20:31N 44°25' E 008°47'0 0.0
2016-Jan-23 19:31N 44°25' E 008°47'0 0.0
2016-Jan-23 18:31N 44°25' E 008°47'0 0.0
2016-Jan-23 17:34N 44°25' E 008°47'0 0.0
2016-Jan-23 16:33N 44°25' E 008°47'2 2.2
2016-Jan-23 15:33N 44°24' E 008°45'7 7.4
2016-Jan-23 14:34N 44°17' E 008°42'4 3.6
2016-Jan-23 13:32N 44°13' E 008°42'1 0.7
2016-Jan-23 12:33N 44°14' E 008°43'1 0.5
2016-Jan-23 11:33N 44°14' E 008°44'1 0.6
2016-Jan-23 10:33N 44°15' E 008°44'1 0.7
2016-Jan-23 09:33N 44°15' E 008°45'1 0.5
2016-Jan-23 08:33N 44°16' E 008°45'1 0.6
2016-Jan-23 07:33N 44°16' E 008°46'1 0.6
2016-Jan-23 06:33N 44°16' E 008°46'2 2.1
2016-Jan-23 05:33N 44°15' E 008°45'2 1.8
2016-Jan-23 04:34N 44°14' E 008°43'1 0.8
2016-Jan-23 03:33N 44°15' E 008°43'1 0.7
2016-Jan-23 02:33N 44°15' E 008°43'1 0.7
2016-Jan-23 01:33N 44°16' E 008°42'0 0.5
2016-Jan-23 00:34N 44°17' E 008°43'0 0.5
2016-Jan-22 23:33N 44°17' E 008°42'0 0.4
2016-Jan-22 22:33N 44°17' E 008°43'8 7.7
2016-Jan-22 21:33N 44°11' E 008°49'7412.3
2016-Jan-22 15:33N 43°34' E 010°18'1 0.8
2016-Jan-22 14:32N 43°35' E 010°18'0 0.0
2016-Jan-22 13:29N 43°35' E 010°18'0 0.0
2016-Jan-22 12:32N 43°35' E 010°18'0 0.0
2016-Jan-22 11:32N 43°35' E 010°18'0 0.0
2016-Jan-22 10:32N 43°35' E 010°18'0 0.0
2016-Jan-22 09:32N 43°35' E 010°18'0 0.0
2016-Jan-22 08:32N 43°35' E 010°18'0 0.0
2016-Jan-22 07:32N 43°35' E 010°18'0 0.0
2016-Jan-22 06:32N 43°35' E 010°18'0 0.0
2016-Jan-22 05:32N 43°35' E 010°18'0 0.0
2016-Jan-22 04:32N 43°35' E 010°18'0 0.0
2016-Jan-22 03:32N 43°35' E 010°18'0 0.0
2016-Jan-22 02:32N 43°35' E 010°18'0 0.0
2016-Jan-22 01:32N 43°35' E 010°18'0 0.0
2016-Jan-22 00:32N 43°35' E 010°18'0 0.0
2016-Jan-21 23:32N 43°35' E 010°18'0 0.0
2016-Jan-21 22:32N 43°35' E 010°18'0 0.0
2016-Jan-21 21:32N 43°35' E 010°18'0 0.0
2016-Jan-21 20:32N 43°35' E 010°18'0 0.0
2016-Jan-21 19:32N 43°35' E 010°18'0 0.0
2016-Jan-21 18:32N 43°35' E 010°18'0 0.0
2016-Jan-21 17:29N 43°35' E 010°18'0 0.0
2016-Jan-21 16:32N 43°35' E 010°18'0 0.0
2016-Jan-21 15:32N 43°35' E 010°18'0 0.0
2016-Jan-21 14:32N 43°35' E 010°18'0 0.0
2016-Jan-21 13:32N 43°35' E 010°18'  
Track history (hours):
 
Tides and Currents Weather Stations Pressure Air Temp Water Temp Dewpoint Dewpoint Depression Visibility Wind Speed Wind Dir Waves Ship Positions

Saigon Express

Last reported at 2016-Jan-31 13:21 UTC. Time now 2016-Feb-06 11:42 UTC.
Position N 35°36' W 023°19'.

Length 260 m; draft 9.3 m.

Type: Ship (hazmat cat A). MMSI: 477106800.

Date/timePositionNaut miles runAvg speedWind from/ knotsBaromVisibWave heightAir tempDewpointWater temp
2016-Jan-31 13:21N 35°36' W 023°19'68816.1
2016-Jan-29 18:32N 36°05' W 009°11'3517.1
2016-Jan-29 16:28N 36°03' W 008°27'13816.9
2016-Jan-29 08:16N 35°57' W 005°36'1014.6
2016-Jan-29 07:33N 36°02' W 005°24'6 6.0
2016-Jan-29 06:32N 36°08' W 005°25'0 0.0
2016-Jan-29 05:32N 36°08' W 005°25'0 0.0
2016-Jan-29 04:33N 36°08' W 005°25'0 0.0
2016-Jan-29 03:33N 36°08' W 005°25'0 0.0
2016-Jan-29 02:33N 36°08' W 005°25'0 0.0
2016-Jan-29 01:33N 36°08' W 005°25'0 0.0
2016-Jan-29 00:33N 36°08' W 005°25'4 4.1
2016-Jan-28 23:33N 36°04' W 005°23'15116.6
2016-Jan-28 14:28N 36°25' W 002°17'3817.2
2016-Jan-28 12:17N 36°47' W 001°40'3317.6
2016-Jan-28 10:26N 37°09' W 001°10'1517.2
2016-Jan-28 09:33N 37°19' W 000°55'1919.1
2016-Jan-28 08:33N 37°31' W 000°37'2019.7
2016-Jan-28 07:33N 37°47' W 000°23'2019.8
2016-Jan-28 06:33N 38°04' W 000°09'5817.7
2016-Jan-28 03:18N 38°57' E 000°18'3419.5
2016-Jan-28 01:32N 39°22' W 000°12'7 7.0
2016-Jan-28 00:32N 39°27' W 000°19'0 0.0
2016-Jan-27 23:32N 39°27' W 000°19'0 0.0
2016-Jan-27 22:32N 39°27' W 000°19'0 0.0
2016-Jan-27 21:32N 39°27' W 000°19'0 0.0
2016-Jan-27 20:32N 39°27' W 000°19'0 0.0
2016-Jan-27 19:32N 39°27' W 000°19'0 0.0
2016-Jan-27 18:32N 39°27' W 000°19'0 0.0
2016-Jan-27 17:32N 39°27' W 000°19'0 0.0
2016-Jan-27 16:32N 39°27' W 000°19'0 0.0
2016-Jan-27 15:32N 39°27' W 000°19'0 0.0
2016-Jan-27 14:29N 39°27' W 000°19'0 0.0
2016-Jan-27 13:32N 39°27' W 000°19'0 0.0
2016-Jan-27 12:32N 39°27' W 000°19'0 0.0
2016-Jan-27 11:32N 39°27' W 000°19'0 0.0
2016-Jan-27 10:32N 39°27' W 000°19'0 0.0
2016-Jan-27 09:32N 39°27' W 000°19'0 0.0
2016-Jan-27 08:32N 39°27' W 000°19'0 0.0
2016-Jan-27 07:32N 39°27' W 000°19'0 0.0
2016-Jan-27 06:32N 39°27' W 000°19'0 0.0
2016-Jan-27 05:32N 39°27' W 000°19'0 0.0
2016-Jan-27 04:32N 39°27' W 000°19'4 3.9
2016-Jan-27 03:29N 39°24' W 000°15'0 0.0
2016-Jan-27 02:32N 39°24' W 000°15'0 0.0
2016-Jan-27 01:32N 39°24' W 000°15'0 0.0
2016-Jan-27 00:32N 39°24' W 000°15'0 0.0
2016-Jan-26 23:26N 39°24' W 000°15'0 0.0
2016-Jan-26 22:29N 39°24' W 000°15'0 0.0
2016-Jan-26 21:17N 39°24' W 000°15'0 0.1
2016-Jan-26 20:29N 39°24' W 000°16'0 0.0
2016-Jan-26 19:32N 39°24' W 000°16'0 0.0
2016-Jan-26 18:29N 39°24' W 000°16'0 0.0
2016-Jan-26 17:29N 39°24' W 000°16'0 0.0
2016-Jan-26 16:29N 39°24' W 000°16'0 0.0
2016-Jan-26 15:22N 39°24' W 000°16'0 0.5
2016-Jan-26 14:33N 39°23' W 000°16'6212.4
2016-Jan-26 09:33N 39°50' E 000°57'1414.1
2016-Jan-26 08:33N 40°02' E 001°07'1313.3
2016-Jan-26 07:33N 40°13' E 001°17'1413.6
2016-Jan-26 06:33N 40°24' E 001°26'1413.7
2016-Jan-26 05:33N 40°36' E 001°36'1414.1
2016-Jan-26 04:33N 40°48' E 001°46'1414.2
2016-Jan-26 03:33N 40°59' E 001°57'1413.8
2016-Jan-26 02:32N 41°11' E 002°07'10 2.0
2016-Jan-25 21:26N 41°21' E 002°10'0 0.0
2016-Jan-25 20:32N 41°21' E 002°10'0 0.0
2016-Jan-25 19:20N 41°21' E 002°10'0 0.0
2016-Jan-25 18:26N 41°21' E 002°10'0 0.0
2016-Jan-25 17:32N 41°21' E 002°10'0 0.0
2016-Jan-25 16:33N 41°21' E 002°10'6 6.2
2016-Jan-25 15:33N 41°15' E 002°14'1212.5
2016-Jan-25 14:33N 41°15' E 002°30'5 5.3
2016-Jan-25 13:33N 41°15' E 002°37'1 0.5
2016-Jan-25 12:32N 41°14' E 002°37'6 5.9
2016-Jan-25 11:33N 41°17' E 002°44'1313.2
2016-Jan-25 10:32N 41°23' E 002°60'1513.4
2016-Jan-25 09:27N 41°26' E 003°19'6413.2
2016-Jan-25 04:33N 41°56' E 004°35'10113.5
2016-Jan-24 21:04N 42°51' E 006°31'6513.4
2016-Jan-24 16:12N 43°26' E 007°46'5013.7
2016-Jan-24 12:33N 44°04' E 008°31'1414.2
2016-Jan-24 11:33N 44°17' E 008°38'1010.0
2016-Jan-24 10:31N 44°25' E 008°47'0 0.0
2016-Jan-24 09:31N 44°25' E 008°47'0 0.0
2016-Jan-24 08:25N 44°25' E 008°47'0 0.0
2016-Jan-24 07:31N 44°25' E 008°47'0 0.0
2016-Jan-24 06:31N 44°25' E 008°47'0 0.0
2016-Jan-24 05:31N 44°25' E 008°47'0 0.0
2016-Jan-24 04:31N 44°25' E 008°47'0 0.0
2016-Jan-24 03:28N 44°25' E 008°47'0 0.0
2016-Jan-24 02:31N 44°25' E 008°47'0 0.0
2016-Jan-24 01:31N 44°25' E 008°47'0 0.0
2016-Jan-24 00:31N 44°25' E 008°47'0 0.0
2016-Jan-23 23:31N 44°25' E 008°47'0 0.0
2016-Jan-23 22:31N 44°25' E 008°47'0 0.0
2016-Jan-23 21:31N 44°25' E 008°47'0 0.0
2016-Jan-23 20:31N 44°25' E 008°47'0 0.0
2016-Jan-23 19:31N 44°25' E 008°47'0 0.0
2016-Jan-23 18:31N 44°25' E 008°47'0 0.0
2016-Jan-23 17:34N 44°25' E 008°47'0 0.0
2016-Jan-23 16:33N 44°25' E 008°47'2 2.2
2016-Jan-23 15:33N 44°24' E 008°45'7 7.4
2016-Jan-23 14:34N 44°17' E 008°42'4 3.6
2016-Jan-23 13:32N 44°13' E 008°42'1 0.7
2016-Jan-23 12:33N 44°14' E 008°43'1 0.5
2016-Jan-23 11:33N 44°14' E 008°44'1 0.6
2016-Jan-23 10:33N 44°15' E 008°44'1 0.7
2016-Jan-23 09:33N 44°15' E 008°45'1 0.5
2016-Jan-23 08:33N 44°16' E 008°45'1 0.6
2016-Jan-23 07:33N 44°16' E 008°46'1 0.6
2016-Jan-23 06:33N 44°16' E 008°46'2 2.1
2016-Jan-23 05:33N 44°15' E 008°45'2 1.8
2016-Jan-23 04:34N 44°14' E 008°43'1 0.8
2016-Jan-23 03:33N 44°15' E 008°43'1 0.7
2016-Jan-23 02:33N 44°15' E 008°43'1 0.7
2016-Jan-23 01:33N 44°16' E 008°42'0 0.5
2016-Jan-23 00:34N 44°17' E 008°43'0 0.5
2016-Jan-22 23:33N 44°17' E 008°42'0 0.4
2016-Jan-22 22:33N 44°17' E 008°43'8 7.7
2016-Jan-22 21:33N 44°11' E 008°49'7412.3
2016-Jan-22 15:33N 43°34' E 010°18'1 0.8
2016-Jan-22 14:32N 43°35' E 010°18'0 0.0
2016-Jan-22 13:29N 43°35' E 010°18'0 0.0
2016-Jan-22 12:32N 43°35' E 010°18'0 0.0
2016-Jan-22 11:32N 43°35' E 010°18'0 0.0
2016-Jan-22 10:32N 43°35' E 010°18'0 0.0
2016-Jan-22 09:32N 43°35' E 010°18'0 0.0
2016-Jan-22 08:32N 43°35' E 010°18'0 0.0
2016-Jan-22 07:32N 43°35' E 010°18'0 0.0
2016-Jan-22 06:32N 43°35' E 010°18'0 0.0
2016-Jan-22 05:32N 43°35' E 010°18'0 0.0
2016-Jan-22 04:32N 43°35' E 010°18'0 0.0
2016-Jan-22 03:32N 43°35' E 010°18'0 0.0
2016-Jan-22 02:32N 43°35' E 010°18'0 0.0
2016-Jan-22 01:32N 43°35' E 010°18'0 0.0
2016-Jan-22 00:32N 43°35' E 010°18'0 0.0
2016-Jan-21 23:32N 43°35' E 010°18'0 0.0
2016-Jan-21 22:32N 43°35' E 010°18'0 0.0
2016-Jan-21 21:32N 43°35' E 010°18'0 0.0
2016-Jan-21 20:32N 43°35' E 010°18'0 0.0
2016-Jan-21 19:32N 43°35' E 010°18'0 0.0
2016-Jan-21 18:32N 43°35' E 010°18'0 0.0
2016-Jan-21 17:29N 43°35' E 010°18'0 0.0
2016-Jan-21 16:32N 43°35' E 010°18'0 0.0
2016-Jan-21 15:32N 43°35' E 010°18'0 0.0
2016-Jan-21 14:32N 43°35' E 010°18'0 0.0
2016-Jan-21 13:32N 43°35' E 010°18'  

Dump ship's entire track history